Time;durP1;ratioP1;P1;durP2;ratioP2;P2;SDS_P1;SDS_P2;PMS_P1;PMS_P2;Temp;Humidity;BMP_temperature;BMP_pressure;BME280_temperature;BME280_humidity;BME280_pressure;Samples;Min_cycle;Max_cycle;Signal;HPM_P1;HPM_P2
2022/09/10 00:01:39;;;;;;;44.80;25.70;;;;;;;15.98;66.89;98815.69;105884;1276;98174;-68
2022/09/10 00:04:11;;;;;;;37.60;22.90;;;;;;;15.98;67.11;98813.73;105906;1276;99995;-66
2022/09/10 00:06:40;;;;;;;37.50;22.60;;;;;;;15.96;67.03;98818.91;105833;1276;112578;-66
2022/09/10 00:09:11;;;;;;;38.20;24.10;;;;;;;15.92;66.90;98824.75;105881;1276;99195;-66
2022/09/10 00:11:40;;;;;;;36.80;22.20;;;;;;;15.92;67.07;98820.72;105895;1276;107746;-69
2022/09/10 00:14:14;;;;;;;37.70;22.30;;;;;;;15.90;67.16;98815.68;105915;1276;99329;-66
2022/09/10 00:16:41;;;;;;;;;;;;;;;15.89;67.12;98812.02;105912;1276;99249;-65
2022/09/10 00:19:12;;;;;;;36.10;21.30;;;;;;;15.87;67.30;98811.20;105902;1276;113134;-66
2022/09/10 00:21:40;;;;;;;36.40;21.60;;;;;;;15.87;67.33;98806.91;105862;1276;99243;-66
2022/09/10 00:24:09;;;;;;;34.30;20.90;;;;;;;15.86;67.07;98805.73;105881;1276;107807;-67
2022/09/10 00:26:39;;;;;;;34.60;19.80;;;;;;;15.84;67.38;98804.09;105936;1276;99941;-65
2022/09/10 00:29:11;;;;;;;36.60;21.60;;;;;;;15.83;67.26;98804.92;105985;1276;99256;-66
2022/09/10 00:31:39;;;;;;;37.90;21.60;;;;;;;15.81;67.33;98806.20;105994;1276;112779;-65
2022/09/10 00:34:11;;;;;;;36.40;20.80;;;;;;;15.82;67.45;98801.14;105982;1276;97659;-64
2022/09/10 00:36:42;;;;;;;39.60;21.70;;;;;;;15.81;67.41;98798.16;105828;1276;107730;-64
2022/09/10 00:39:15;;;;;;;37.00;21.80;;;;;;;15.81;67.43;98795.08;105869;1276;99316;-64
2022/09/10 00:41:46;;;;;;;42.00;23.70;;;;;;;15.80;67.38;98791.45;106002;1276;99324;-64
2022/09/10 00:44:40;;;;;;;46.50;24.00;;;;;;;15.76;67.54;98787.72;105920;1276;113776;-64
2022/09/10 00:47:16;;;;;;;38.50;22.20;;;;;;;15.73;67.54;98786.91;105981;1276;96686;-62
2022/09/10 00:50:03;;;;;;;38.80;22.50;;;;;;;15.71;67.54;98781.78;105962;1276;107852;-64
2022/09/10 00:52:33;;;;;;;40.30;22.50;;;;;;;15.71;67.60;98781.83;105917;1276;99368;-65
2022/09/10 00:55:11;;;;;;;39.40;22.90;;;;;;;15.67;67.55;98785.27;106027;1276;99224;-64
2022/09/10 00:57:42;;;;;;;39.40;22.30;;;;;;;15.63;67.71;98789.02;105980;1276;112791;-64
2022/09/10 01:00:13;;;;;;;40.80;22.40;;;;;;;15.60;67.77;98790.84;105998;1276;99234;-63
2022/09/10 01:02:43;;;;;;;41.40;23.00;;;;;;;15.58;67.82;98793.06;105961;1276;108389;-64
2022/09/10 01:05:14;;;;;;;39.00;21.80;;;;;;;15.55;67.87;98790.28;105943;1276;99213;-64
2022/09/10 01:07:43;;;;;;;43.80;21.70;;;;;;;15.57;67.90;98787.98;106022;1276;99244;-64
2022/09/10 01:10:27;;;;;;;39.20;20.60;;;;;;;15.58;67.87;98790.17;106035;1276;112925;-62
2022/09/10 01:13:17;;;;;;;39.10;21.10;;;;;;;15.57;67.96;98788.92;106003;1276;99239;-62
2022/09/10 01:15:54;;;;;;;38.70;20.60;;;;;;;15.56;68.06;98784.67;106029;1276;108193;-62
2022/09/10 01:18:40;;;;;;;40.40;21.20;;;;;;;15.57;68.17;98780.98;105947;1276;99247;-68
2022/09/10 01:21:12;;;;;;;42.10;23.10;;;;;;;15.58;68.22;98778.89;106046;1276;99304;-66
2022/09/10 01:23:41;;;;;;;40.60;21.00;;;;;;;15.58;68.19;98782.10;105966;1276;113478;-64
2022/09/10 01:26:48;;;;;;;38.10;22.30;;;;;;;15.55;68.02;98774.95;106001;1276;98674;-65
2022/09/10 01:29:37;;;;;;;36.40;19.30;;;;;;;15.49;68.15;98771.19;105972;1276;107376;-64
2022/09/10 01:32:14;;;;;;;35.70;19.40;;;;;;;15.49;68.19;98769.60;105995;1276;99314;-66
2022/09/10 01:35:20;;;;;;;34.30;18.70;;;;;;;15.47;68.28;98768.21;106024;1276;99245;-64
2022/09/10 01:37:55;;;;;;;34.40;17.50;;;;;;;15.40;68.38;98770.67;105963;1276;113152;-64
2022/09/10 01:40:28;;;;;;;32.40;17.40;;;;;;;15.36;68.23;98774.15;105992;1276;99328;-63
2022/09/10 01:43:06;;;;;;;32.80;17.50;;;;;;;15.32;68.31;98770.35;105969;1276;107755;-64
2022/09/10 01:45:47;;;;;;;32.40;16.50;;;;;;;15.29;68.23;98766.96;106021;1276;99342;-63
2022/09/10 01:48:58;;;;;;;34.70;18.90;;;;;;;15.21;68.34;98761.82;106047;1276;99204;-63
2022/09/10 01:51:54;;;;;;;34.00;17.80;;;;;;;15.19;68.64;98770.60;105968;1276;113930;-66
2022/09/10 01:54:38;;;;;;;31.80;17.30;;;;;;;15.20;68.70;98775.83;106032;1276;99259;-63
2022/09/10 01:57:46;;;;;;;30.30;16.00;;;;;;;15.21;68.70;98777.75;105997;1276;108449;-64
2022/09/10 02:00:18;;;;;;;30.70;16.00;;;;;;;15.17;68.64;98775.02;105961;1276;98860;-66
2022/09/10 02:03:19;;;;;;;33.40;16.50;;;;;;;15.14;68.72;98774.23;105978;1276;99177;-66
2022/09/10 02:05:52;;;;;;;32.20;15.60;;;;;;;15.11;68.72;98771.52;105867;1277;113986;-64
2022/09/10 02:08:29;;;;;;;33.50;17.80;;;;;;;15.12;68.78;98769.80;106008;1276;96940;-66
2022/09/10 02:11:04;;;;;;;31.50;15.40;;;;;;;15.08;68.65;98773.39;106002;1276;107744;-66
2022/09/10 02:13:34;;;;;;;32.60;17.40;;;;;;;15.02;68.64;98778.39;105994;1276;99207;-66
2022/09/10 02:16:07;;;;;;;32.10;16.40;;;;;;;15.00;68.78;98778.44;106008;1276;99418;-66
2022/09/10 02:18:39;;;;;;;31.40;16.30;;;;;;;14.98;68.73;98774.69;105988;1276;112936;-64
2022/09/10 02:21:11;;;;;;;30.70;15.90;;;;;;;14.93;68.82;98766.76;106019;1276;98969;-62
2022/09/10 02:23:53;;;;;;;28.00;15.00;;;;;;;14.88;68.69;98765.09;106010;1276;105725;-62
2022/09/10 02:26:22;;;;;;;26.30;14.20;;;;;;;14.79;68.78;98769.38;106014;1276;99202;-65
2022/09/10 02:28:51;;;;;;;28.90;16.20;;;;;;;14.74;68.78;98769.45;106031;1276;99193;-65
2022/09/10 02:31:19;;;;;;;30.40;15.70;;;;;;;14.70;68.76;98774.11;105977;1276;115561;-64
2022/09/10 02:33:49;;;;;;;29.10;15.60;;;;;;;14.66;68.85;98771.04;106023;1276;99244;-65
2022/09/10 02:36:19;;;;;;;30.40;16.50;;;;;;;14.66;69.04;98769.27;105968;1277;108328;-63
2022/09/10 02:38:47;;;;;;;31.20;16.40;;;;;;;14.68;69.07;98767.02;106009;1276;97714;-64
2022/09/10 02:41:15;;;;;;;33.40;17.00;;;;;;;14.70;69.10;98764.16;105984;1276;98395;-65
2022/09/10 02:43:45;;;;;;;31.20;17.40;;;;;;;14.71;69.19;98761.34;106003;1276;113299;-66
2022/09/10 02:46:14;;;;;;;30.50;17.60;;;;;;;14.73;69.16;98752.59;105962;1276;96763;-65
2022/09/10 02:48:43;;;;;;;34.80;18.40;;;;;;;14.71;69.19;98747.24;105992;1276;108410;-66
2022/09/10 02:51:11;;;;;;;37.80;19.50;;;;;;;14.71;69.21;98746.78;105934;1276;99423;-65
2022/09/10 02:53:39;;;;;;;33.10;18.70;;;;;;;14.68;69.26;98746.92;105905;1276;99195;-62
2022/09/10 02:56:08;;;;;;;34.30;19.50;;;;;;;14.69;69.36;98743.35;105911;1276;113620;-64
2022/09/10 02:58:38;;;;;;;35.10;19.60;;;;;;;14.67;69.27;98739.96;105900;1276;99330;-64
2022/09/10 03:01:13;;;;;;;32.30;18.20;;;;;;;14.65;69.29;98740.35;105875;1276;107123;-66
2022/09/10 03:03:49;;;;;;;29.70;16.70;;;;;;;14.64;69.40;98739.70;105878;1276;99327;-65
2022/09/10 03:06:18;;;;;;;29.90;16.00;;;;;;;14.62;69.46;98738.27;105919;1276;99126;-65
2022/09/10 03:08:47;;;;;;;33.60;17.80;;;;;;;14.65;69.43;98735.52;105953;1276;112771;-65
2022/09/10 03:11:16;;;;;;;28.70;16.60;;;;;;;14.66;69.48;98739.50;106017;1276;98035;-66
2022/09/10 03:13:45;;;;;;;30.10;16.70;;;;;;;14.66;69.49;98741.44;105989;1276;108412;-67
2022/09/10 03:16:16;;;;;;;29.00;16.50;;;;;;;14.66;69.50;98741.45;105930;1276;99312;-66
2022/09/10 03:18:45;;;;;;;29.90;17.10;;;;;;;14.67;69.60;98743.16;105958;1276;99236;-65
2022/09/10 03:21:19;;;;;;;29.20;16.50;;;;;;;14.68;69.63;98741.65;105871;1276;113350;-65
2022/09/10 03:23:49;;;;;;;33.40;19.20;;;;;;;14.68;69.69;98743.59;105891;1276;99345;-68
2022/09/10 03:26:21;;;;;;;30.90;17.50;;;;;;;14.68;69.70;98741.27;105925;1277;108489;-65
2022/09/10 03:28:49;;;;;;;32.20;18.50;;;;;;;14.67;69.61;98741.86;105851;1277;99333;-64
2022/09/10 03:31:17;;;;;;;34.40;18.70;;;;;;;14.66;69.67;98744.48;105952;1276;96622;-64
2022/09/10 03:33:46;;;;;;;37.20;19.50;;;;;;;14.67;69.74;98744.56;106031;1276;113452;-63
2022/09/10 03:36:14;;;;;;;38.90;21.80;;;;;;;14.68;69.71;98734.16;105968;1276;100010;-63
2022/09/10 03:38:52;;;;;;;38.20;21.60;;;;;;;14.68;69.61;98728.24;102772;1309;636114;-66
2022/09/10 03:41:20;;;;;;;33.60;17.90;;;;;;;14.60;69.54;98728.44;105204;1286;94107;-65
2022/09/10 03:43:48;;;;;;;32.20;17.90;;;;;;;14.54;69.62;98722.04;105190;1285;94584;-65
2022/09/10 03:46:17;;;;;;;31.50;17.90;;;;;;;14.48;69.62;98709.27;105191;1287;108042;-65
2022/09/10 03:48:45;;;;;;;31.00;18.00;;;;;;;14.44;69.70;98697.70;105863;1280;94338;-64
2022/09/10 03:51:20;;;;;;;;;;;;;;;14.41;69.79;98693.66;105759;1280;1901636;-65
2022/09/10 03:53:48;;;;;;;32.70;16.50;;;;;;;14.35;69.91;98695.70;106054;1276;93910;-66
2022/09/10 03:56:18;;;;;;;34.60;18.30;;;;;;;14.33;69.90;98693.91;105965;1276;94224;-62
2022/09/10 03:58:48;;;;;;;37.90;23.00;;;;;;;14.32;69.91;98691.67;106000;1277;107736;-63
2022/09/10 04:01:18;;;;;;;50.10;28.00;;;;;;;14.31;69.96;98693.51;105953;1277;94383;-64
2022/09/10 04:03:47;;;;;;;44.10;26.10;;;;;;;14.31;69.91;98696.77;105971;1276;107881;-64
2022/09/10 04:06:16;;;;;;;44.70;25.30;;;;;;;14.29;69.96;98693.15;105940;1276;94230;-66
2022/09/10 04:08:50;;;;;;;35.40;18.90;;;;;;;14.27;69.96;98695.83;105982;1277;95169;-63
2022/09/10 04:11:19;;;;;;;36.10;19.30;;;;;;;14.26;70.07;98695.59;106000;1277;108557;-64
2022/09/10 04:13:47;;;;;;;38.10;20.50;;;;;;;14.27;70.12;98691.78;106035;1277;95377;-63
2022/09/10 04:16:16;;;;;;;36.90;19.80;;;;;;;14.28;70.14;98691.85;106049;1276;108365;-65
2022/09/10 04:18:46;;;;;;;37.20;20.60;;;;;;;14.25;70.08;98686.04;105942;1276;94282;-63
2022/09/10 04:21:14;;;;;;;38.90;21.30;;;;;;;14.22;70.12;98684.59;105960;1276;95233;-65
2022/09/10 04:23:43;;;;;;;37.50;19.60;;;;;;;14.21;70.09;98684.30;105961;1276;109390;-65
2022/09/10 04:26:17;;;;;;;43.60;21.80;;;;;;;14.20;70.22;98686.02;105881;1277;94190;-65
2022/09/10 04:28:45;;;;;;;43.80;25.40;;;;;;;14.19;70.21;98688.29;105932;1276;108099;-65
2022/09/10 04:31:13;;;;;;;49.40;28.00;;;;;;;14.18;70.25;98689.63;105914;1276;94249;-65
2022/09/10 04:33:43;;;;;;;47.30;25.40;;;;;;;14.18;70.27;98690.08;105921;1277;95199;-64
2022/09/10 04:36:11;;;;;;;47.20;25.10;;;;;;;14.19;70.29;98688.92;105924;1276;107829;-64
2022/09/10 04:38:40;;;;;;;51.20;27.00;;;;;;;14.19;70.28;98688.24;106019;1276;95455;-65
2022/09/10 04:41:10;;;;;;;44.10;23.00;;;;;;;14.19;70.39;98682.70;105921;1276;108438;-64
2022/09/10 04:43:37;;;;;;;47.30;24.40;;;;;;;14.19;70.41;98671.46;105927;1276;94302;-64
2022/09/10 04:46:06;;;;;;;44.60;24.40;;;;;;;14.19;70.39;98669.47;105950;1277;95375;-66
2022/09/10 04:48:34;;;;;;;42.50;24.10;;;;;;;14.18;70.32;98673.35;105761;1279;109169;-63
2022/09/10 04:51:05;;;;;;;45.30;27.30;;;;;;;14.15;70.43;98674.55;106004;1276;95168;-65
2022/09/10 04:53:45;;;;;;;48.60;28.70;;;;;;;14.12;70.50;98675.98;105976;1276;108546;-65
2022/09/10 04:56:14;;;;;;;53.30;30.10;;;;;;;14.14;70.59;98672.48;106010;1276;96398;-65
2022/09/10 04:58:43;;;;;;;48.40;26.90;;;;;;;14.15;70.54;98673.65;106031;1276;95143;-65
2022/09/10 05:01:13;;;;;;;50.00;27.70;;;;;;;14.12;70.51;98671.77;105992;1276;109959;-63
2022/09/10 05:03:42;;;;;;;50.10;28.00;;;;;;;14.11;70.49;98669.94;105996;1276;95147;-66
2022/09/10 05:06:11;;;;;;;48.10;26.90;;;;;;;14.12;70.60;98666.98;105935;1276;108294;-66
2022/09/10 05:08:40;;;;;;;49.10;27.60;;;;;;;14.12;70.64;98664.61;105919;1276;94285;-66
2022/09/10 05:11:09;;;;;;;49.30;27.60;;;;;;;14.14;70.64;98665.70;105974;1276;95879;-66
2022/09/10 05:13:38;;;;;;;44.50;24.70;;;;;;;14.14;70.65;98666.04;106036;1276;109137;-65
2022/09/10 05:16:06;;;;;;;47.50;25.10;;;;;;;14.14;70.68;98661.77;106010;1276;94267;-66
2022/09/10 05:18:34;;;;;;;51.10;26.80;;;;;;;14.15;70.72;98655.63;105953;1276;108722;-66
2022/09/10 05:21:04;;;;;;;51.60;26.70;;;;;;;14.15;70.79;98660.59;105947;1276;95346;-65
2022/09/10 05:23:33;;;;;;;51.30;26.90;;;;;;;14.17;70.88;98661.48;105946;1276;95223;-65
2022/09/10 05:26:01;;;;;;;40.90;21.90;;;;;;;14.19;70.82;98657.93;105973;1276;109318;-66
2022/09/10 05:28:30;;;;;;;36.80;19.70;;;;;;;14.20;70.86;98651.42;106026;1276;94217;-66
2022/09/10 05:30:59;;;;;;;34.40;18.00;;;;;;;14.21;70.85;98649.77;105955;1276;108316;-65
2022/09/10 05:33:27;;;;;;;33.70;17.30;;;;;;;14.20;70.85;98651.02;105912;1277;94247;-65
2022/09/10 05:35:55;;;;;;;31.00;16.10;;;;;;;14.21;70.84;98647.25;105949;1277;95246;-66
2022/09/10 05:38:23;;;;;;;32.10;16.80;;;;;;;14.22;70.90;98650.17;105977;1276;109305;-65
2022/09/10 05:40:52;;;;;;;31.00;16.10;;;;;;;14.23;70.99;98648.48;106044;1276;95150;-64
2022/09/10 05:43:21;;;;;;;30.40;15.20;;;;;;;14.23;70.89;98644.02;106003;1276;108368;-65
2022/09/10 05:45:51;;;;;;;30.50;16.30;;;;;;;14.23;70.99;98642.38;105984;1276;95552;-65
2022/09/10 05:48:20;;;;;;;30.20;16.40;;;;;;;14.24;70.99;98645.50;106010;1276;95119;-63
2022/09/10 05:50:49;;;;;;;32.40;16.20;;;;;;;14.24;71.02;98648.35;106043;1276;109280;-64
2022/09/10 05:53:18;;;;;;;30.70;15.80;;;;;;;14.25;70.97;98652.20;105986;1276;95278;-64
2022/09/10 05:55:48;;;;;;;33.00;17.00;;;;;;;14.25;71.05;98653.44;105929;1276;108354;-63
2022/09/10 05:58:16;;;;;;;31.00;15.60;;;;;;;14.26;71.10;98653.64;105982;1276;96325;-66
2022/09/10 06:00:52;;;;;;;29.20;14.70;;;;;;;14.28;71.10;98659.02;105952;1276;96345;-65
2022/09/10 06:03:21;;;;;;;32.40;15.40;;;;;;;14.29;71.13;98655.70;105996;1276;108658;-67
2022/09/10 06:05:51;;;;;;;30.00;15.30;;;;;;;14.29;71.17;98639.98;106001;1277;95253;-66
2022/09/10 06:08:21;;;;;;;30.40;14.60;;;;;;;14.31;71.11;98638.06;105999;1276;108390;-66
2022/09/10 06:11:06;;;;;;;26.50;13.50;;;;;;;14.32;71.17;98634.94;105993;1276;95279;-66
2022/09/10 06:13:37;;;;;;;25.30;13.00;;;;;;;14.32;71.17;98628.36;105954;1276;95185;-64
2022/09/10 06:16:06;;;;;;;26.10;12.50;;;;;;;14.33;71.18;98634.14;105807;1276;108687;-63
2022/09/10 06:18:34;;;;;;;26.40;13.40;;;;;;;14.34;71.20;98640.64;105831;1276;95161;-64
2022/09/10 06:21:08;;;;;;;26.30;13.00;;;;;;;14.35;71.29;98646.75;105843;1276;108408;-63
2022/09/10 06:23:35;;;;;;;26.20;12.50;;;;;;;14.37;71.22;98646.41;105854;1276;94694;-66
2022/09/10 06:26:09;;;;;;;28.30;13.00;;;;;;;14.39;71.33;98644.95;105854;1276;94308;-65
2022/09/10 06:28:37;;;;;;;25.80;12.80;;;;;;;14.42;71.30;98643.41;105885;1276;108679;-65
2022/09/10 06:31:10;;;;;;;27.10;14.20;;;;;;;14.46;71.35;98645.42;105824;1276;95249;-66
2022/09/10 06:33:39;;;;;;;27.00;12.50;;;;;;;14.49;71.40;98644.75;105837;1276;107955;-64
2022/09/10 06:36:09;;;;;;;25.30;12.30;;;;;;;14.51;71.38;98644.88;105817;1276;94324;-64
2022/09/10 06:38:39;;;;;;;26.90;13.20;;;;;;;14.53;71.32;98647.73;105971;1276;94338;-64
2022/09/10 06:41:12;;;;;;;25.30;13.20;;;;;;;14.54;71.34;98645.15;105933;1276;108791;-64
2022/09/10 06:43:41;;;;;;;25.20;12.50;;;;;;;14.56;71.42;98647.65;105819;1276;94352;-66
2022/09/10 06:46:17;;;;;;;26.80;13.60;;;;;;;14.58;71.42;98642.64;105881;1276;107447;-64
2022/09/10 06:49:05;;;;;;;23.90;12.50;;;;;;;14.61;71.41;98650.97;106095;1274;94281;-65
2022/09/10 06:51:34;;;;;;;23.10;11.40;;;;;;;14.62;71.42;98654.20;106045;1275;95254;-62
2022/09/10 06:54:02;;;;;;;23.40;12.10;;;;;;;14.63;71.41;98653.60;106129;1274;109264;-61
2022/09/10 06:56:31;;;;;;;23.10;11.70;;;;;;;14.65;71.41;98647.54;106083;1274;95190;-62
2022/09/10 06:59:00;;;;;;;24.30;11.60;;;;;;;14.67;71.46;98650.90;106040;1276;108551;-65
2022/09/10 07:01:30;;;;;;;22.60;11.30;;;;;;;14.69;71.46;98649.45;106048;1273;95167;-64
2022/09/10 07:04:01;;;;;;;23.20;11.70;;;;;;;14.72;71.48;98652.50;106101;1276;95256;-64
2022/09/10 07:06:33;;;;;;;25.60;12.80;;;;;;;14.75;71.56;98646.04;106051;1274;109359;-64
2022/09/10 07:09:04;;;;;;;26.70;13.00;;;;;;;14.78;71.55;98641.00;106145;1273;94208;-66
2022/09/10 07:11:34;;;;;;;28.20;14.80;;;;;;;14.80;71.63;98635.20;105968;1274;108221;-65
2022/09/10 07:14:13;;;;;;;29.00;15.10;;;;;;;14.82;71.61;98636.97;106078;1273;95179;-64
2022/09/10 07:16:41;;;;;;;29.10;16.50;;;;;;;14.84;71.63;98636.40;106097;1274;95288;-65
2022/09/10 07:19:16;;;;;;;34.80;18.30;;;;;;;14.86;71.69;98635.88;106089;1273;109200;-66
2022/09/10 07:21:44;;;;;;;36.30;20.00;;;;;;;14.88;71.68;98633.71;106119;1273;94357;-66
2022/09/10 07:24:13;;;;;;;39.50;21.20;;;;;;;14.90;71.67;98632.85;106066;1274;108381;-67
2022/09/10 07:26:42;;;;;;;35.00;19.80;;;;;;;14.91;71.70;98625.59;106125;1274;95183;-67
2022/09/10 07:29:11;;;;;;;37.40;20.80;;;;;;;14.93;71.66;98625.26;106109;1274;95349;-66
2022/09/10 07:31:40;;;;;;;48.20;25.90;;;;;;;14.95;71.68;98622.04;106099;1274;109241;-66
2022/09/10 07:34:12;;;;;;;67.70;39.10;;;;;;;14.95;71.64;98624.81;106154;1274;95256;-64
2022/09/10 07:36:41;;;;;;;69.70;41.40;;;;;;;14.96;71.64;98625.60;106027;1273;108341;-69
2022/09/10 07:39:09;;;;;;;56.80;35.10;;;;;;;14.97;71.70;98629.43;105974;1274;95158;-68
2022/09/10 07:41:37;;;;;;;42.20;26.00;;;;;;;14.99;71.76;98628.05;106029;1273;95194;-70
2022/09/10 07:44:05;;;;;;;39.80;22.70;;;;;;;15.01;71.69;98628.03;106113;1273;108787;-71
2022/09/10 07:46:33;;;;;;;34.60;21.40;;;;;;;15.02;71.75;98625.78;106119;1273;95150;-74
2022/09/10 07:49:01;;;;;;;32.50;19.20;;;;;;;15.05;71.72;98628.58;106089;1274;109447;-70
2022/09/10 07:51:31;;;;;;;30.80;16.30;;;;;;;15.07;71.74;98626.26;105972;1273;95088;-70
2022/09/10 07:53:59;;;;;;;29.20;15.60;;;;;;;15.08;71.80;98627.00;105987;1274;96556;-71
2022/09/10 07:56:30;;;;;;;29.70;15.00;;;;;;;15.10;71.67;98626.45;106005;1273;109014;-70
2022/09/10 07:59:01;;;;;;;28.50;15.00;;;;;;;15.11;71.75;98631.11;106007;1274;94321;-71
2022/09/10 08:01:32;;;;;;;28.50;14.90;;;;;;;15.12;71.75;98633.21;105969;1273;108177;-70
2022/09/10 08:04:00;;;;;;;27.80;15.30;;;;;;;15.12;71.73;98635.84;106004;1273;96611;-69
2022/09/10 08:06:31;;;;;;;27.00;13.40;;;;;;;15.14;71.87;98637.23;106135;1273;96520;-70
2022/09/10 08:09:05;;;;;;;25.20;13.40;;;;;;;15.16;71.82;98637.40;106098;1273;110025;-69
2022/09/10 08:11:34;;;;;;;26.70;13.30;;;;;;;15.18;71.81;98640.80;106036;1274;96583;-70
2022/09/10 08:14:02;;;;;;;24.20;13.40;;;;;;;15.20;71.79;98634.52;106003;1273;107780;-70
2022/09/10 08:16:31;;;;;;;25.50;13.10;;;;;;;15.21;71.76;98635.87;106009;1274;96526;-70
2022/09/10 08:19:01;;;;;;;25.70;12.80;;;;;;;15.23;71.77;98635.52;106109;1274;96537;-69
2022/09/10 08:21:30;;;;;;;24.70;12.90;;;;;;;15.25;71.79;98632.87;106041;1274;110046;-70
2022/09/10 08:23:58;;;;;;;24.70;12.50;;;;;;;15.26;71.82;98628.80;105927;1276;95015;-70
2022/09/10 08:26:26;;;;;;;24.80;12.20;;;;;;;15.27;71.76;98627.96;106021;1273;107394;-71
2022/09/10 08:28:57;;;;;;;22.70;11.40;;;;;;;15.29;71.76;98626.16;106107;1273;96629;-70
2022/09/10 08:31:26;;;;;;;23.00;10.90;;;;;;;15.30;71.67;98620.85;106086;1273;96583;-71
2022/09/10 08:33:57;;;;;;;24.20;11.90;;;;;;;15.33;71.85;98622.91;105945;1276;110033;-70
2022/09/10 08:36:25;;;;;;;24.80;12.20;;;;;;;15.34;71.82;98619.23;106068;1276;96623;-71
2022/09/10 08:38:53;;;;;;;23.00;10.80;;;;;;;15.35;71.77;98614.52;106054;1274;107570;-72
2022/09/10 08:41:51;;;;;;;20.50;10.40;;;;;;;15.35;71.67;98613.09;106207;1273;96607;-71
2022/09/10 08:44:28;;;;;;;22.20;10.10;;;;;;;15.35;71.76;98611.66;106194;1273;96516;-70
2022/09/10 08:47:13;;;;;;;;;;;;;;;15.36;71.78;98610.33;106241;1272;110094;-72
2022/09/10 08:49:52;;;;;;;19.20;8.80;;;;;;;15.34;71.87;98605.81;106159;1273;96467;-71
2022/09/10 08:52:33;;;;;;;20.30;9.30;;;;;;;15.35;71.85;98604.29;106075;1273;106599;-72
2022/09/10 08:55:15;;;;;;;20.00;8.70;;;;;;;15.37;71.85;98603.80;106046;1273;97543;-72
2022/09/10 08:58:05;;;;;;;21.20;9.40;;;;;;;15.38;71.81;98607.59;106112;1273;95049;-70
2022/09/10 09:00:37;;;;;;;18.30;8.70;;;;;;;15.40;71.83;98602.02;106168;1273;110145;-70
2022/09/10 09:03:26;;;;;;;17.50;7.60;;;;;;;15.41;71.73;98606.25;106125;1273;94508;-70
2022/09/10 09:05:58;;;;;;;16.50;7.10;;;;;;;15.41;71.69;98604.41;106027;1273;107900;-70
2022/09/10 09:08:33;;;;;;;16.40;6.90;;;;;;;15.42;71.73;98606.42;106098;1273;94335;-74
2022/09/10 09:11:06;;;;;;;16.70;7.40;;;;;;;15.44;71.60;98604.16;106115;1273;96526;-69
2022/09/10 09:13:57;;;;;;;18.80;8.60;;;;;;;15.46;71.64;98599.99;106200;1273;110106;-69
2022/09/10 09:16:44;;;;;;;18.40;8.30;;;;;;;15.48;71.76;98600.31;106057;1273;96623;-72
2022/09/10 09:19:22;;;;;;;17.90;8.80;;;;;;;15.50;71.66;98606.24;106193;1272;107791;-70
2022/09/10 09:21:55;;;;;;;18.30;8.40;;;;;;;15.51;71.74;98604.91;106089;1273;96593;-71
2022/09/10 09:24:38;;;;;;;19.90;9.40;;;;;;;15.51;71.74;98604.48;106189;1273;96545;-71
2022/09/10 09:27:13;;;;;;;18.80;9.20;;;;;;;15.52;71.88;98603.55;106112;1274;110716;-70
2022/09/10 09:30:04;;;;;;;18.20;9.10;;;;;;;15.52;71.78;98609.55;106154;1273;96286;-67
2022/09/10 09:32:38;;;;;;;17.40;8.50;;;;;;;15.54;71.76;98604.06;106215;1273;108161;-69
2022/09/10 09:35:24;;;;;;;18.90;9.00;;;;;;;15.55;71.88;98604.98;106147;1273;94977;-71
2022/09/10 09:38:07;;;;;;;24.10;14.60;;;;;;;15.56;71.78;98600.30;106144;1273;96480;-70
2022/09/10 09:40:46;;;;;;;23.40;13.50;;;;;;;15.56;71.75;98600.97;106181;1271;110201;-70
2022/09/10 09:43:25;;;;;;;20.90;10.00;;;;;;;15.57;71.79;98601.62;106206;1271;96522;-71
2022/09/10 09:45:53;;;;;;;20.40;9.40;;;;;;;15.58;71.73;98599.58;106186;1271;107757;-70
2022/09/10 09:48:23;;;;;;;19.90;9.10;;;;;;;15.58;71.86;98594.35;106145;1271;96533;-71
2022/09/10 09:50:59;;;;;;;18.20;8.50;;;;;;;15.59;71.74;98591.88;106186;1271;96494;-68
2022/09/10 09:53:29;;;;;;;17.40;7.90;;;;;;;15.61;71.87;98584.56;106081;1271;110096;-71
2022/09/10 09:56:03;;;;;;;16.50;7.70;;;;;;;15.62;71.74;98582.09;106218;1271;96538;-70
2022/09/10 09:58:34;;;;;;;16.40;7.50;;;;;;;15.63;71.84;98577.91;106070;1273;107801;-71
2022/09/10 10:01:05;;;;;;;17.40;8.80;;;;;;;15.65;71.82;98576.52;106187;1270;96489;-70
2022/09/10 10:03:51;;;;;;;16.20;7.70;;;;;;;15.66;71.76;98575.85;106133;1271;96567;-67
2022/09/10 10:06:43;;;;;;;17.30;7.60;;;;;;;15.68;71.79;98576.71;106046;1271;110825;-70
2022/09/10 10:09:37;;;;;;;16.50;7.80;;;;;;;15.70;71.84;98575.48;106077;1273;96539;-70
2022/09/10 10:12:13;;;;;;;17.70;7.30;;;;;;;15.70;71.83;98575.74;106068;1271;107752;-70
2022/09/10 10:14:43;;;;;;;19.20;9.10;;;;;;;15.71;71.82;98578.43;106108;1273;96548;-71
2022/09/10 10:17:33;;;;;;;18.10;8.80;;;;;;;15.70;71.85;98580.23;106236;1271;96454;-70
2022/09/10 10:20:07;;;;;;;19.30;9.50;;;;;;;15.70;71.69;98585.02;106177;1271;110739;-70
2022/09/10 10:22:40;;;;;;;17.50;8.60;;;;;;;15.71;71.71;98585.84;106142;1271;97660;-70
2022/09/10 10:25:34;;;;;;;19.30;9.60;;;;;;;15.72;71.70;98588.12;106083;1273;107778;-69
2022/09/10 10:28:23;;;;;;;19.60;9.20;;;;;;;15.72;71.66;98590.30;106213;1271;97630;-69
2022/09/10 10:30:59;;;;;;;18.60;8.80;;;;;;;15.72;71.79;98588.65;106131;1271;96580;-71
2022/09/10 10:33:34;;;;;;;17.10;7.90;;;;;;;15.73;71.72;98588.36;106165;1273;109801;-69
2022/09/10 10:36:15;;;;;;;15.60;8.00;;;;;;;15.74;71.75;98584.31;106089;1273;96365;-70
2022/09/10 10:38:57;;;;;;;16.70;7.90;;;;;;;15.75;71.77;98581.14;106099;1271;107743;-70
2022/09/10 10:41:39;;;;;;;17.10;8.60;;;;;;;15.78;71.73;98582.67;106172;1271;94924;-68
2022/09/10 10:44:30;;;;;;;15.40;7.60;;;;;;;15.80;71.83;98582.33;106154;1271;96390;-72
2022/09/10 10:47:22;;;;;;;15.40;7.80;;;;;;;15.83;71.74;98582.94;106218;1273;111733;-70
2022/09/10 10:50:04;;;;;;;16.10;7.90;;;;;;;15.84;71.80;98578.46;106170;1272;94245;-69
2022/09/10 10:52:55;;;;;;;16.60;8.00;;;;;;;15.85;71.81;98576.06;106134;1273;106528;-69
2022/09/10 10:55:41;;;;;;;17.10;8.20;;;;;;;15.87;71.72;98577.34;106032;1273;95362;-71
2022/09/10 10:58:38;;;;;;;18.10;8.10;;;;;;;15.90;71.98;98573.83;106206;1273;95054;-69
2022/09/10 11:01:28;;;;;;;16.60;8.10;;;;;;;15.91;71.98;98572.92;106103;1273;110142;-69
2022/09/10 11:04:15;;;;;;;17.30;8.90;;;;;;;15.93;71.85;98575.29;106172;1273;96514;-70
2022/09/10 11:06:48;;;;;;;18.40;9.40;;;;;;;15.93;71.99;98575.83;106188;1273;107914;-71
2022/09/10 11:09:42;;;;;;;22.10;12.20;;;;;;;15.95;71.84;98571.73;106122;1273;96600;-74
2022/09/10 11:12:20;;;;;;;19.80;10.30;;;;;;;15.96;72.02;98568.40;106136;1272;96522;-70
2022/09/10 11:15:00;;;;;;;15.60;8.20;;;;;;;15.97;71.90;98571.33;106107;1272;110092;-71
2022/09/10 11:17:34;;;;;;;14.70;7.20;;;;;;;15.98;71.98;98568.35;106100;1273;94255;-70
2022/09/10 11:20:17;;;;;;;14.50;6.90;;;;;;;15.99;71.87;98570.38;106119;1272;108127;-71
2022/09/10 11:23:13;;;;;;;10.70;5.60;;;;;;;16.00;71.81;98571.52;106162;1273;94363;-73
2022/09/10 11:25:58;;;;;;;13.80;6.40;;;;;;;16.00;71.80;98571.52;106111;1273;96543;-80
2022/09/10 11:28:37;;;;;;;11.40;5.80;;;;;;;16.00;71.84;98574.05;106224;1273;110065;-80
2022/09/10 11:31:16;;;;;;;13.00;5.70;;;;;;;16.01;71.80;98566.26;106150;1273;97720;-76
2022/09/10 11:34:12;;;;;;;10.90;5.10;;;;;;;16.04;71.95;98568.98;106092;1273;107982;-74
2022/09/10 11:36:52;;;;;;;10.90;5.50;;;;;;;16.06;71.75;98569.27;106154;1273;96563;-74
2022/09/10 11:39:37;;;;;;;11.20;5.60;;;;;;;16.09;71.95;98568.88;106247;1273;97292;-76
2022/09/10 11:42:19;;;;;;;10.80;5.30;;;;;;;16.10;71.82;98563.68;106142;1273;110133;-74